createdAt,value
2022-12-08T00:01:11.537Z,97952.81
2022-12-08T00:03:39.058Z,97951.50
2022-12-08T00:06:25.855Z,97948.81
2022-12-08T00:11:43.175Z,97945.81
2022-12-08T00:14:09.767Z,97947.88
2022-12-08T00:16:36.453Z,97946.41
2022-12-08T00:19:03.170Z,97942.47
2022-12-08T00:21:29.771Z,97942.13
2022-12-08T00:23:56.793Z,97946.00
2022-12-08T00:26:23.444Z,97936.41
2022-12-08T00:28:50.243Z,97936.34
2022-12-08T00:31:17.015Z,97929.66
2022-12-08T00:33:43.693Z,97932.28
2022-12-08T00:36:13.025Z,97923.00
2022-12-08T00:38:41.337Z,97916.69
2022-12-08T00:41:13.947Z,97915.56
2022-12-08T00:43:40.641Z,97922.97
2022-12-08T00:46:07.376Z,97918.09
2022-12-08T00:48:34.737Z,97914.13
2022-12-08T00:51:01.587Z,97920.06
2022-12-08T00:53:28.359Z,97914.41
2022-12-08T00:55:54.978Z,97910.94
2022-12-08T00:58:21.649Z,97908.84
2022-12-08T01:00:48.410Z,97904.00
2022-12-08T01:03:15.327Z,97911.06
2022-12-08T01:05:42.002Z,97909.47
2022-12-08T01:08:09.202Z,97909.38
2022-12-08T01:10:37.295Z,97909.63
2022-12-08T01:13:04.409Z,97905.63
2022-12-08T01:15:31.157Z,97904.72
2022-12-08T01:17:57.784Z,97909.44
2022-12-08T01:20:24.936Z,97904.66
2022-12-08T01:22:51.603Z,97911.72
2022-12-08T01:25:18.403Z,97913.41
2022-12-08T01:27:45.048Z,97916.44
2022-12-08T01:30:13.430Z,97928.41
2022-12-08T01:32:40.208Z,97929.09
2022-12-08T01:35:07.135Z,97921.16
2022-12-08T01:37:33.819Z,97919.78
2022-12-08T01:40:00.509Z,97914.38
2022-12-08T01:42:27.258Z,97909.84
2022-12-08T01:47:46.095Z,97907.00
2022-12-08T01:50:15.042Z,97905.56
2022-12-08T01:52:47.009Z,97902.41
2022-12-08T01:55:20.686Z,97900.69
2022-12-08T01:57:50.954Z,97909.22
2022-12-08T02:00:19.721Z,97900.81
2022-12-08T02:03:02.873Z,97900.31
2022-12-08T02:05:36.125Z,97901.09
2022-12-08T02:10:47.482Z,97892.53
2022-12-08T02:13:17.734Z,97895.94
2022-12-08T02:16:19.594Z,97880.56
2022-12-08T02:19:31.777Z,97882.28
2022-12-08T02:22:09.449Z,97876.91
2022-12-08T02:25:02.679Z,97875.22
2022-12-08T02:28:01.115Z,97871.59
2022-12-08T02:30:55.492Z,97869.38
2022-12-08T02:34:01.423Z,97864.13
2022-12-08T02:36:33.643Z,97869.69
2022-12-08T02:39:32.318Z,97862.19
2022-12-08T02:42:22.361Z,97863.06
2022-12-08T02:44:52.714Z,97860.34
2022-12-08T02:47:21.886Z,97860.41
2022-12-08T02:49:48.527Z,97863.78
2022-12-08T02:52:15.113Z,97854.75
2022-12-08T02:54:47.496Z,97849.88
2022-12-08T02:57:31.616Z,97849.38
2022-12-08T03:03:25.804Z,97850.16
2022-12-08T03:06:05.800Z,97846.84
2022-12-08T03:08:51.809Z,97844.34
2022-12-08T03:14:35.014Z,97847.50
2022-12-08T03:17:02.449Z,97838.91
2022-12-08T03:19:34.599Z,97834.31
2022-12-08T03:22:03.663Z,97840.31
2022-12-08T03:27:20.253Z,97825.84
2022-12-08T03:29:49.214Z,97821.28
2022-12-08T03:32:35.296Z,97822.34
2022-12-08T03:35:05.679Z,97821.56
2022-12-08T03:37:35.811Z,97820.28
2022-12-08T03:40:05.111Z,97814.31
2022-12-08T03:42:31.970Z,97819.53
2022-12-08T03:44:58.659Z,97823.31
2022-12-08T03:47:25.401Z,97825.25
2022-12-08T03:49:52.106Z,97823.19
2022-12-08T03:52:18.756Z,97818.41
2022-12-08T03:54:45.364Z,97819.34
2022-12-08T03:57:12.041Z,97807.63
2022-12-08T03:59:38.794Z,97799.69
2022-12-08T04:02:05.472Z,97799.06
2022-12-08T04:04:32.257Z,97803.25
2022-12-08T04:06:58.842Z,97796.75
2022-12-08T04:09:25.499Z,97794.84
2022-12-08T04:11:52.140Z,97789.47
2022-12-08T04:14:18.836Z,97796.94
2022-12-08T04:16:45.493Z,97791.41
2022-12-08T04:19:12.096Z,97792.34
2022-12-08T04:21:38.757Z,97788.88
2022-12-08T04:24:05.642Z,97786.66
2022-12-08T04:26:32.343Z,97789.81
2022-12-08T04:28:58.990Z,97782.84
2022-12-08T04:31:25.735Z,97789.50
2022-12-08T04:33:52.444Z,97784.13
2022-12-08T04:36:19.031Z,97790.13
2022-12-08T04:38:45.641Z,97791.88
2022-12-08T04:41:12.277Z,97797.88
2022-12-08T04:43:38.927Z,97790.28
2022-12-08T04:46:09.385Z,97788.56
2022-12-08T04:48:40.007Z,97778.75
2022-12-08T04:53:43.372Z,97780.66
2022-12-08T04:56:16.959Z,97780.97
2022-12-08T04:58:43.863Z,97774.16
2022-12-08T05:01:11.372Z,97777.47
2022-12-08T05:03:38.564Z,97773.50
2022-12-08T05:06:05.750Z,97761.03
2022-12-08T05:08:32.805Z,97768.94
2022-12-08T05:11:07.899Z,97772.59
2022-12-08T05:13:34.597Z,97770.06
2022-12-08T05:16:08.869Z,97765.28
2022-12-08T05:18:35.921Z,97774.16
2022-12-08T05:21:03.814Z,97769.25
2022-12-08T05:23:30.605Z,97767.66
2022-12-08T05:25:57.545Z,97759.94
2022-12-08T05:28:41.943Z,97760.41
2022-12-08T05:31:10.307Z,97756.28
2022-12-08T05:33:37.012Z,97766.09
2022-12-08T05:36:03.857Z,97763.06
2022-12-08T05:38:30.582Z,97767.66
2022-12-08T05:40:57.213Z,97763.41
2022-12-08T05:43:23.853Z,97758.81
2022-12-08T05:45:50.596Z,97761.50
2022-12-08T05:48:17.333Z,97759.13
2022-12-08T05:50:48.173Z,97764.34
2022-12-08T05:53:16.065Z,97755.50
2022-12-08T05:55:42.828Z,97761.97
2022-12-08T05:58:14.031Z,97757.25
2022-12-08T06:00:41.519Z,97751.25
2022-12-08T06:03:08.897Z,97757.56
2022-12-08T06:05:36.115Z,97752.50
2022-12-08T06:08:02.929Z,97753.31
2022-12-08T06:10:30.048Z,97752.34
2022-12-08T06:12:57.002Z,97751.88
2022-12-08T06:15:23.659Z,97750.28
2022-12-08T06:17:50.327Z,97748.38
2022-12-08T06:20:17.109Z,97752.66
2022-12-08T06:22:43.826Z,97753.91
2022-12-08T06:25:10.616Z,97748.84
2022-12-08T06:27:37.346Z,97754.25
2022-12-08T06:30:04.885Z,97757.22
2022-12-08T06:32:31.759Z,97760.88
2022-12-08T06:34:58.508Z,97755.81
2022-12-08T06:37:25.202Z,97753.28
2022-12-08T06:39:52.185Z,97759.63
2022-12-08T06:42:37.584Z,97756.94
2022-12-08T06:45:04.726Z,97760.84
2022-12-08T06:47:31.370Z,97762.78
2022-12-08T06:49:58.032Z,97764.34
2022-12-08T06:52:24.831Z,97763.22
2022-12-08T06:57:24.330Z,97770.72
2022-12-08T06:59:50.957Z,97771.94
2022-12-08T07:02:17.789Z,97768.34
2022-12-08T07:04:44.525Z,97765.06
2022-12-08T07:07:11.208Z,97759.72
2022-12-08T07:09:37.993Z,97768.13
2022-12-08T07:12:04.819Z,97766.56
2022-12-08T07:14:31.475Z,97759.91
2022-12-08T07:16:58.207Z,97765.91
2022-12-08T07:19:25.044Z,97765.59
2022-12-08T07:21:51.633Z,97772.25
2022-12-08T07:24:18.346Z,97766.00
2022-12-08T07:26:44.958Z,97772.34
2022-12-08T07:29:11.582Z,97758.78
2022-12-08T07:31:38.395Z,97768.25
2022-12-08T07:34:05.199Z,97764.91
2022-12-08T07:39:04.466Z,97768.81
2022-12-08T07:41:31.163Z,97768.53
2022-12-08T07:43:57.861Z,97768.38
2022-12-08T07:46:25.908Z,97775.16
2022-12-08T07:48:53.808Z,97771.56
2022-12-08T07:51:20.514Z,97770.59
2022-12-08T07:53:53.695Z,97767.13
2022-12-08T07:56:21.852Z,97774.88
2022-12-08T07:58:48.551Z,97763.03
2022-12-08T08:01:24.750Z,97766.00
2022-12-08T08:03:51.841Z,97763.50
2022-12-08T08:06:18.565Z,97762.25
2022-12-08T08:08:45.276Z,97752.44
2022-12-08T08:11:18.933Z,97754.59
2022-12-08T08:13:47.980Z,97765.34
2022-12-08T08:16:14.811Z,97753.81
2022-12-08T08:18:41.996Z,97754.44
2022-12-08T08:21:43.179Z,97755.84
2022-12-08T08:23:55.296Z,97750.78
2022-12-08T08:26:22.031Z,97759.47
2022-12-08T08:28:50.153Z,97753.06
2022-12-08T08:31:16.863Z,97749.25
2022-12-08T08:33:43.621Z,97750.22
2022-12-08T08:36:10.688Z,97751.16
2022-12-08T08:38:42.950Z,97752.28
2022-12-08T08:41:10.892Z,97755.47
2022-12-08T08:43:38.829Z,97758.63
2022-12-08T08:46:07.103Z,97761.03
2022-12-08T08:48:34.201Z,97758.66
2022-12-08T08:51:08.234Z,97753.44
2022-12-08T08:53:34.850Z,97755.19
2022-12-08T08:56:02.913Z,97755.34
2022-12-08T08:58:29.784Z,97752.19
2022-12-08T09:00:56.618Z,97755.66
2022-12-08T09:03:23.274Z,97746.63
2022-12-08T09:05:50.961Z,97742.66
2022-12-08T09:08:17.912Z,97739.50
2022-12-08T09:10:44.650Z,97747.09
2022-12-08T09:13:11.242Z,97746.06
2022-12-08T09:15:38.134Z,97743.16
2022-12-08T09:18:06.894Z,97744.38
2022-12-08T09:20:35.120Z,97740.75
2022-12-08T09:23:01.828Z,97733.56
2022-12-08T09:25:28.967Z,97731.75
2022-12-08T09:27:55.576Z,97725.97
2022-12-08T09:30:22.359Z,97727.53
2022-12-08T09:32:49.094Z,97732.78
2022-12-08T09:35:15.808Z,97725.53
2022-12-08T09:37:42.550Z,97735.91
2022-12-08T09:40:15.583Z,97726.16
2022-12-08T09:42:52.315Z,97728.53
2022-12-08T09:45:21.068Z,97732.78
2022-12-08T09:48:13.195Z,97727.09
2022-12-08T09:50:46.825Z,97731.63
2022-12-08T09:53:19.530Z,97723.84
2022-12-08T09:56:03.291Z,97705.06
2022-12-08T09:59:00.156Z,97716.66
2022-12-08T10:04:37.724Z,97699.97
2022-12-08T10:07:17.616Z,97697.44
2022-12-08T10:10:09.885Z,97702.94
2022-12-08T10:12:39.135Z,97696.13
2022-12-08T10:15:33.489Z,97690.81
2022-12-08T10:18:10.401Z,97687.06
2022-12-08T10:20:40.647Z,97678.13
2022-12-08T10:23:31.714Z,97692.03
2022-12-08T10:26:05.285Z,97677.59
2022-12-08T10:28:33.197Z,97674.50
2022-12-08T10:31:00.526Z,97675.88
2022-12-08T10:33:29.685Z,97680.22
2022-12-08T10:35:59.378Z,97678.44
2022-12-08T10:38:35.155Z,97675.28
2022-12-08T10:41:07.895Z,97663.53
2022-12-08T10:43:38.288Z,97662.66
2022-12-08T10:46:17.441Z,97667.69
2022-12-08T10:49:10.686Z,97663.91
2022-12-08T10:54:42.146Z,97654.19
2022-12-08T10:57:21.696Z,97655.00
2022-12-08T10:59:48.296Z,97649.75
2022-12-08T11:02:20.548Z,97650.69
2022-12-08T11:04:47.961Z,97648.78
2022-12-08T11:07:22.944Z,97636.09
2022-12-08T11:09:55.347Z,97627.31
2022-12-08T11:15:03.557Z,97613.78
2022-12-08T11:17:40.246Z,97610.50
2022-12-08T11:20:09.844Z,97609.81
2022-12-08T11:22:47.199Z,97606.09
2022-12-08T11:25:21.361Z,97607.53
2022-12-08T11:27:49.930Z,97608.34
2022-12-08T11:30:31.232Z,97602.81
2022-12-08T11:33:03.648Z,97602.31
2022-12-08T11:35:34.862Z,97588.56
2022-12-08T11:38:21.617Z,97593.03
2022-12-08T11:40:53.703Z,97588.53
2022-12-08T11:43:30.953Z,97585.84
2022-12-08T11:46:04.881Z,97585.16
2022-12-08T11:48:39.977Z,97584.53
2022-12-08T11:51:24.154Z,97585.38
2022-12-08T11:54:03.760Z,97578.31
2022-12-08T11:56:34.859Z,97586.97
2022-12-08T11:59:10.683Z,97579.19
2022-12-08T12:01:42.351Z,97577.03
2022-12-08T12:04:36.598Z,97578.19
2022-12-08T12:07:25.855Z,97586.97
2022-12-08T12:10:22.939Z,97580.09
2022-12-08T12:12:52.352Z,97577.41
2022-12-08T12:15:31.453Z,97585.50
2022-12-08T12:18:29.251Z,97575.66
2022-12-08T12:21:01.033Z,97574.41
2022-12-08T12:23:47.072Z,97563.66
2022-12-08T12:26:23.191Z,97559.28
2022-12-08T12:28:58.070Z,97558.16
2022-12-08T12:31:34.912Z,97554.63
2022-12-08T12:34:39.167Z,97553.81
2022-12-08T12:37:11.314Z,97556.94
2022-12-08T12:40:07.603Z,97561.78
2022-12-08T12:42:53.125Z,97548.44
2022-12-08T12:45:22.638Z,97547.22
2022-12-08T12:47:56.326Z,97543.91
2022-12-08T12:50:32.245Z,97533.88
2022-12-08T12:53:02.675Z,97535.94
2022-12-08T12:55:54.530Z,97528.06
2022-12-08T12:58:40.987Z,97529.03
2022-12-08T13:01:10.734Z,97522.78
2022-12-08T13:03:51.865Z,97520.69
2022-12-08T13:06:35.998Z,97523.13
2022-12-08T13:09:03.814Z,97524.59
2022-12-08T13:11:30.472Z,97524.34
2022-12-08T13:14:03.967Z,97516.84
2022-12-08T13:16:37.026Z,97521.56
2022-12-08T13:19:16.181Z,97523.38
2022-12-08T13:21:42.995Z,97514.94
2022-12-08T13:24:35.977Z,97515.53
2022-12-08T13:27:05.197Z,97522.25
2022-12-08T13:29:33.408Z,97525.13
2022-12-08T13:32:05.055Z,97524.09
2022-12-08T13:34:37.309Z,97520.84
2022-12-08T13:37:13.766Z,97516.03
2022-12-08T13:39:40.474Z,97513.69
2022-12-08T13:42:12.928Z,97515.97
2022-12-08T13:48:23.377Z,97511.84
2022-12-08T13:57:02.456Z,97511.97
2022-12-08T13:59:19.820Z,97512.13
2022-12-08T14:01:49.916Z,97503.06
2022-12-08T14:04:42.674Z,97509.59
2022-12-08T14:07:05.904Z,97515.25
2022-12-08T14:09:36.838Z,97515.44
2022-12-08T14:12:16.831Z,97509.50
2022-12-08T14:15:02.647Z,97505.84
2022-12-08T14:17:30.954Z,97509.00
2022-12-08T14:20:02.216Z,97513.16
2022-12-08T14:22:37.298Z,97514.81
2022-12-08T14:25:05.490Z,97512.97
2022-12-08T14:27:35.399Z,97518.81
2022-12-08T14:30:08.344Z,97514.81
2022-12-08T14:32:39.136Z,97511.22
2022-12-08T14:35:08.744Z,97515.06
2022-12-08T14:37:38.896Z,97507.69
2022-12-08T14:40:23.014Z,97510.72
2022-12-08T14:43:05.923Z,97516.81
2022-12-08T14:45:35.324Z,97517.59
2022-12-08T14:48:26.771Z,97520.13
2022-12-08T14:51:02.109Z,97523.63
2022-12-08T14:53:52.038Z,97523.06
2022-12-08T14:56:27.581Z,97513.16
2022-12-08T14:59:25.044Z,97521.16
2022-12-08T15:01:54.181Z,97515.16
2022-12-08T15:04:25.948Z,97512.00
2022-12-08T15:06:57.047Z,97516.19
2022-12-08T15:09:32.061Z,97511.91
2022-12-08T15:12:26.781Z,97508.78
2022-12-08T15:14:58.682Z,97503.97
2022-12-08T15:17:40.437Z,97509.56
2022-12-08T15:20:27.590Z,97517.31
2022-12-08T15:22:58.653Z,97506.31
2022-12-08T15:25:25.603Z,97503.47
2022-12-08T15:30:28.835Z,97511.38
2022-12-08T15:32:56.397Z,97514.97
2022-12-08T15:35:23.206Z,97518.53
2022-12-08T15:37:49.893Z,97505.09
2022-12-08T15:40:21.361Z,97508.53
2022-12-08T15:42:49.036Z,97505.28
2022-12-08T15:45:16.904Z,97506.59
2022-12-08T15:50:21.262Z,97507.00
2022-12-08T15:52:49.096Z,97502.50
2022-12-08T15:55:18.304Z,97509.38
2022-12-08T16:00:52.488Z,97504.66
2022-12-08T16:09:38.601Z,97493.91
2022-12-08T16:12:56.905Z,97494.72
2022-12-08T16:15:50.158Z,97501.31
2022-12-08T16:18:04.428Z,97483.44
2022-12-08T16:20:58.973Z,97485.03
2022-12-08T16:23:34.600Z,97477.63
2022-12-08T16:28:54.495Z,97486.41
2022-12-08T16:31:23.178Z,97477.50
2022-12-08T16:33:50.139Z,97479.63
2022-12-08T16:36:16.815Z,97472.03
2022-12-08T16:38:43.469Z,97476.84
2022-12-08T16:41:33.971Z,97479.91
2022-12-08T16:44:05.387Z,97474.25
2022-12-08T16:46:32.507Z,97477.16
2022-12-08T16:48:59.251Z,97477.66
2022-12-08T16:51:27.369Z,97474.81
2022-12-08T16:53:55.463Z,97466.38
2022-12-08T16:56:28.755Z,97467.91
2022-12-08T16:58:58.789Z,97461.44
2022-12-08T17:01:25.614Z,97475.94
2022-12-08T17:04:22.358Z,97478.72
2022-12-08T17:06:39.092Z,97474.47
2022-12-08T17:09:05.715Z,97473.16
2022-12-08T17:11:36.283Z,97476.28
2022-12-08T17:14:09.531Z,97482.47
2022-12-08T17:19:09.052Z,97472.88
2022-12-08T17:21:36.173Z,97472.00
2022-12-08T17:24:02.859Z,97472.16
2022-12-08T17:26:29.736Z,97469.47
2022-12-08T17:31:34.359Z,97469.91
2022-12-08T17:36:40.156Z,97469.34
2022-12-08T17:39:11.028Z,97476.19
2022-12-08T17:41:42.021Z,97474.72
2022-12-08T17:44:13.721Z,97477.75
2022-12-08T17:46:43.380Z,97479.13
2022-12-08T17:49:18.842Z,97477.75
2022-12-08T17:51:50.312Z,97479.41
2022-12-08T17:54:18.296Z,97474.91
2022-12-08T17:56:45.565Z,97472.63
2022-12-08T17:59:13.527Z,97464.59
2022-12-08T18:01:40.792Z,97470.09
2022-12-08T18:04:08.954Z,97480.44
2022-12-08T18:06:37.673Z,97482.72
2022-12-08T18:09:07.077Z,97484.00
2022-12-08T18:11:35.196Z,97481.69
2022-12-08T18:14:09.619Z,97488.56
2022-12-08T18:16:42.240Z,97488.81
2022-12-08T18:19:10.154Z,97489.25
2022-12-08T18:21:40.257Z,97493.63
2022-12-08T18:24:07.889Z,97479.81
2022-12-08T18:26:34.710Z,97475.81
2022-12-08T18:29:01.949Z,97476.38
2022-12-08T18:31:28.842Z,97467.53
2022-12-08T18:33:55.715Z,97469.31
2022-12-08T18:36:25.127Z,97472.06
2022-12-08T18:38:52.746Z,97473.56
2022-12-08T18:41:26.266Z,97469.91
2022-12-08T18:43:57.255Z,97472.56
2022-12-08T18:46:24.715Z,97462.84
2022-12-08T18:48:52.854Z,97465.53
2022-12-08T18:51:22.774Z,97463.03
2022-12-08T18:53:50.453Z,97458.94
2022-12-08T18:56:27.530Z,97471.81
2022-12-08T18:58:58.592Z,97467.88
2022-12-08T19:01:30.226Z,97468.97
2022-12-08T19:04:26.669Z,97462.69
2022-12-08T19:06:46.245Z,97459.41
2022-12-08T19:09:12.977Z,97453.59
2022-12-08T19:14:12.928Z,97453.91
2022-12-08T19:16:39.616Z,97454.72
2022-12-08T19:19:06.566Z,97449.38
2022-12-08T19:21:33.548Z,97451.16
2022-12-08T19:24:00.552Z,97456.94
2022-12-08T19:26:28.874Z,97454.31
2022-12-08T19:28:55.686Z,97442.09
2022-12-08T19:31:22.654Z,97442.13
2022-12-08T19:33:49.513Z,97436.16
2022-12-08T19:36:19.454Z,97442.09
2022-12-08T19:39:04.991Z,97443.25
2022-12-08T19:41:51.085Z,97445.16
2022-12-08T19:44:39.236Z,97447.78
2022-12-08T19:47:06.653Z,97441.50
2022-12-08T19:49:33.497Z,97445.97
2022-12-08T19:52:00.681Z,97440.00
2022-12-08T19:54:27.623Z,97442.50
2022-12-08T19:56:54.344Z,97443.97
2022-12-08T19:59:21.661Z,97442.59
2022-12-08T20:01:48.777Z,97430.97
2022-12-08T20:04:16.075Z,97428.94
2022-12-08T20:06:43.188Z,97424.91
2022-12-08T20:09:10.742Z,97428.81
2022-12-08T20:11:38.271Z,97430.16
2022-12-08T20:14:05.372Z,97418.50
2022-12-08T20:16:32.625Z,97428.47
2022-12-08T20:19:00.220Z,97433.88
2022-12-08T20:24:04.914Z,97436.69
2022-12-08T20:26:31.839Z,97431.31
2022-12-08T20:28:58.727Z,97425.91
2022-12-08T20:31:28.175Z,97428.38
2022-12-08T20:33:55.173Z,97440.16
2022-12-08T20:36:22.882Z,97427.81
2022-12-08T20:38:51.658Z,97431.66
2022-12-08T20:41:19.852Z,97428.25
2022-12-08T20:43:47.949Z,97427.13
2022-12-08T20:46:16.775Z,97435.25
2022-12-08T20:48:44.595Z,97439.25
2022-12-08T20:51:16.432Z,97445.34
2022-12-08T20:53:43.369Z,97440.84
2022-12-08T20:56:18.053Z,97439.25
2022-12-08T20:58:45.201Z,97430.97
2022-12-08T21:01:14.336Z,97432.28
2022-12-08T21:03:41.724Z,97438.25
2022-12-08T21:06:09.330Z,97428.06
2022-12-08T21:08:36.946Z,97426.91
2022-12-08T21:11:04.968Z,97435.34
2022-12-08T21:13:32.362Z,97425.78
2022-12-08T21:15:59.312Z,97438.59
2022-12-08T21:18:26.663Z,97431.66
2022-12-08T21:21:04.993Z,97433.22
2022-12-08T21:23:32.233Z,97423.44
2022-12-08T21:25:59.201Z,97428.69
2022-12-08T21:28:26.137Z,97428.16
2022-12-08T21:30:53.038Z,97424.22
2022-12-08T21:33:19.790Z,97421.84
2022-12-08T21:35:46.907Z,97425.41
2022-12-08T21:40:45.176Z,97427.09
2022-12-08T21:43:13.717Z,97422.13
2022-12-08T21:45:40.607Z,97421.00
2022-12-08T21:48:11.391Z,97428.19
2022-12-08T21:58:15.915Z,97431.59
2022-12-08T22:03:20.243Z,97433.28
2022-12-08T22:05:47.114Z,97427.44
2022-12-08T22:08:13.924Z,97424.94
2022-12-08T22:10:41.091Z,97429.50
2022-12-08T22:15:41.633Z,97425.53
2022-12-08T22:18:09.624Z,97427.72
2022-12-08T22:20:42.322Z,97426.66
2022-12-08T22:23:11.041Z,97421.38
2022-12-08T22:25:38.126Z,97427.44
2022-12-08T22:28:05.531Z,97433.03
2022-12-08T22:30:38.674Z,97424.94
2022-12-08T22:33:06.063Z,97421.13
2022-12-08T22:38:04.465Z,97420.88
2022-12-08T22:40:31.317Z,97410.72
2022-12-08T22:42:58.309Z,97409.09
2022-12-08T22:47:56.450Z,97410.81
2022-12-08T22:50:23.669Z,97416.56
2022-12-08T22:52:50.589Z,97413.88
2022-12-08T22:55:17.371Z,97399.78
2022-12-08T22:57:44.105Z,97405.63
2022-12-08T23:00:12.280Z,97394.19
2022-12-08T23:02:39.429Z,97402.16
2022-12-08T23:05:06.763Z,97404.75
2022-12-08T23:07:33.868Z,97405.53
2022-12-08T23:10:00.570Z,97396.38
2022-12-08T23:12:27.343Z,97399.25
2022-12-08T23:14:54.098Z,97394.53
2022-12-08T23:17:20.942Z,97391.50
2022-12-08T23:19:47.621Z,97390.53
2022-12-08T23:22:14.452Z,97387.72
2022-12-08T23:24:41.153Z,97387.69
2022-12-08T23:27:08.283Z,97378.84
2022-12-08T23:29:35.251Z,97371.56
2022-12-08T23:32:01.981Z,97380.88
2022-12-08T23:34:28.766Z,97373.63
2022-12-08T23:36:55.636Z,97382.19
2022-12-08T23:39:24.844Z,97369.31
2022-12-08T23:41:51.849Z,97368.75
2022-12-08T23:44:18.638Z,97363.66
2022-12-08T23:46:45.542Z,97368.56
2022-12-08T23:49:12.422Z,97365.28
2022-12-08T23:51:39.201Z,97360.31
2022-12-08T23:54:07.014Z,97351.66
2022-12-08T23:56:33.761Z,97345.88
2022-12-08T23:59:01.277Z,97342.59
